金門航空站 - ATIS

METAR RCBS 281200Z 05007KT 9999 FEW020 27/24 Q1009 NOSIG RMK A2982(S)=

站台狀態:Offline
最後更新:2021-09-28 22:00:01